Welcome to the New NWS' Forecast!
Most changes are behind the scenes, but click here for differences you might notice.

Terminal Aerodrome Forecast (TAF)

Issued by National Weather Service (NWS)

                            
581 
FTUS42 KKEY 172339
TAFEYW
TAF
KEYW 172339Z 1800/1824 11011KT P6SM SCT025
     FM180300 09007KT P6SM VCSH SCT025 SCT040=